Time;durP1;ratioP1;P1;durP2;ratioP2;P2;SDS_P1;SDS_P2;PMS_P1;PMS_P2;Temp;Humidity;BMP_temperature;BMP_pressure;BME280_temperature;BME280_humidity;BME280_pressure;Samples;Min_cycle;Max_cycle;Signal;HPM_P1;HPM_P2
2022/09/27 00:00:38;;;;;;;4.45;4.05;;;19.40;65.30;;;;;;6102045;23;20159;-84
2022/09/27 00:03:06;;;;;;;4.85;4.35;;;19.40;65.40;;;;;;6125788;23;20156;-85
2022/09/27 00:05:32;;;;;;;5.05;4.20;;;19.40;65.30;;;;;;6101911;23;20178;-84
2022/09/27 00:08:03;;;;;;;5.78;4.50;;;19.40;65.30;;;;;;6077616;23;20614;-84
2022/09/27 00:10:31;;;;;;;5.10;4.50;;;19.40;65.30;;;;;;6126106;23;20231;-85
2022/09/27 00:12:59;;;;;;;5.03;4.40;;;19.40;65.40;;;;;;6081880;23;20159;-85
2022/09/27 00:15:27;;;;;;;5.13;4.28;;;19.40;65.40;;;;;;6111531;23;20463;-83
2022/09/27 00:17:58;;;;;;;4.85;4.35;;;19.40;65.40;;;;;;6163419;23;20694;-85
2022/09/27 00:20:29;;;;;;;4.88;4.38;;;19.40;65.40;;;;;;6195470;23;20160;-84
2022/09/27 00:23:03;;;;;;;5.55;4.57;;;19.40;65.40;;;;;;6195349;23;20149;-83
2022/09/27 00:25:33;;;;;;;4.93;4.43;;;19.40;65.60;;;;;;6196335;23;20159;-84
2022/09/27 00:28:04;;;;;;;4.80;4.28;;;19.30;65.40;;;;;;6196605;23;20161;-83
2022/09/27 00:30:34;;;;;;;5.25;4.70;;;19.40;65.50;;;;;;6196149;23;20156;-83
2022/09/27 00:33:03;;;;;;;4.28;3.88;;;19.30;65.50;;;;;;6220195;23;20154;-85
2022/09/27 00:35:31;;;;;;;4.30;3.90;;;19.40;65.60;;;;;;6184528;23;20673;-83
2022/09/27 00:38:00;;;;;;;4.90;4.40;;;19.30;65.50;;;;;;6154390;23;20203;-83
2022/09/27 00:40:27;;;;;;;4.93;4.43;;;19.30;65.50;;;;;;6129752;23;20151;-83
2022/09/27 00:42:55;;;;;;;5.55;4.57;;;19.30;65.60;;;;;;6129969;23;20252;-83
2022/09/27 00:45:26;;;;;;;4.80;4.30;;;19.30;65.60;;;;;;6129596;23;20595;-84
2022/09/27 00:48:00;;;;;;;5.10;4.50;;;19.30;65.70;;;;;;6154440;23;20551;-83
2022/09/27 00:50:35;;;;;;;4.90;4.43;;;19.30;65.60;;;;;;6154019;23;20154;-84
2022/09/27 00:53:13;;;;;;;4.60;4.00;;;19.30;65.70;;;;;;6090501;23;20185;-85
2022/09/27 00:55:54;;;;;;;4.95;4.45;;;19.30;65.70;;;;;;6090536;23;20597;-84
2022/09/27 00:58:36;;;;;;;4.65;4.22;;;19.30;65.80;;;;;;6041540;23;20197;-85
2022/09/27 01:01:09;;;;;;;5.13;4.47;;;19.30;65.80;;;;;;6042370;23;20153;-83
2022/09/27 01:03:43;;;;;;;4.75;4.13;;;19.30;65.60;;;;;;6042875;23;20589;-85
2022/09/27 01:06:10;;;;;;;5.35;4.50;;;19.30;65.60;;;;;;6116325;23;20162;-84
2022/09/27 01:08:40;;;;;;;4.78;4.30;;;19.30;65.40;;;;;;6081779;23;20190;-83
2022/09/27 01:11:21;;;;;;;4.95;4.45;;;19.30;65.50;;;;;;6058039;23;20159;-83
2022/09/27 01:13:55;;;;;;;5.00;4.22;;;19.30;65.50;;;;;;6084570;23;20178;-84
2022/09/27 01:16:48;;;;;;;5.53;4.60;;;19.30;65.40;;;;;;6158170;23;20616;-84
2022/09/27 01:19:34;;;;;;;4.68;4.18;;;19.30;65.40;;;;;;6162809;23;20155;-82
2022/09/27 01:22:13;;;;;;;4.90;4.13;;;19.30;65.40;;;;;;6136787;23;20155;-84
2022/09/27 01:25:07;;;;;;;5.65;4.70;;;19.40;65.40;;;;;;6174673;23;20236;-84
2022/09/27 01:27:50;;;;;;;4.80;4.30;;;19.30;65.40;;;;;;6194894;23;20240;-83
2022/09/27 01:30:35;;;;;;;5.18;4.10;;;19.30;65.50;;;;;;6196085;23;20149;-83
2022/09/27 01:33:17;;;;;;;4.88;4.38;;;19.30;65.50;;;;;;6163432;23;20154;-84
2022/09/27 01:36:02;;;;;;;4.35;3.95;;;19.30;65.40;;;;;;6129848;23;20166;-83
2022/09/27 01:39:13;;;;;;;4.93;4.43;;;19.30;65.50;;;;;;6039890;23;20190;-84
2022/09/27 01:42:09;;;;;;;4.20;3.80;;;19.30;65.50;;;;;;6154450;23;20269;-83
2022/09/27 01:44:58;;;;;;;4.93;4.38;;;19.30;65.50;;;;;;6107944;23;20159;-84
2022/09/27 01:47:34;;;;;;;5.18;4.25;;;19.30;65.60;;;;;;6130223;23;20155;-84
2022/09/27 01:50:08;;;;;;;4.78;4.20;;;19.30;65.60;;;;;;6081545;23;20151;-84
2022/09/27 01:52:50;;;;;;;5.05;4.40;;;19.30;65.60;;;;;;6105637;23;20505;-85
2022/09/27 01:55:22;;;;;;;4.85;4.32;;;19.20;65.60;;;;;;6095035;23;20242;-84
2022/09/27 01:57:55;;;;;;;4.90;4.40;;;19.30;65.70;;;;;;6158887;23;20182;-85
2022/09/27 02:00:25;;;;;;;4.85;4.35;;;19.30;65.60;;;;;;6183271;23;20285;-83
2022/09/27 02:03:03;;;;;;;4.90;4.13;;;19.30;65.60;;;;;;6183232;23;20482;-83
2022/09/27 02:05:35;;;;;;;5.07;4.57;;;19.30;65.70;;;;;;6110905;23;20154;-85
2022/09/27 02:08:04;;;;;;;5.18;4.30;;;19.30;65.60;;;;;;6134087;23;20193;-83
2022/09/27 02:10:37;;;;;;;5.03;4.53;;;19.30;65.60;;;;;;6159266;23;20615;-83
2022/09/27 02:13:19;;;;;;;4.40;4.00;;;19.30;65.70;;;;;;6134642;23;20746;-85
2022/09/27 02:15:57;;;;;;;5.10;4.60;;;19.30;65.60;;;;;;6135173;23;20147;-83
2022/09/27 02:18:33;;;;;;;4.55;4.15;;;19.30;65.50;;;;;;6128755;23;20279;-84
2022/09/27 02:21:08;;;;;;;4.80;4.30;;;19.30;65.60;;;;;;6111503;23;20213;-84
2022/09/27 02:23:39;;;;;;;4.72;4.28;;;19.30;65.70;;;;;;6135813;23;20188;-83
2022/09/27 02:26:16;;;;;;;4.53;4.13;;;19.20;65.60;;;;;;6159392;23;20146;-85
2022/09/27 02:29:11;;;;;;;4.50;4.10;;;19.30;65.70;;;;;;6135232;23;20158;-83
2022/09/27 02:31:42;;;;;;;4.80;4.30;;;19.40;65.70;;;;;;6134620;23;20499;-84
2022/09/27 02:34:15;;;;;;;4.60;4.20;;;19.30;65.60;;;;;;6056308;23;20228;-83
2022/09/27 02:36:41;;;;;;;5.22;4.57;;;19.30;65.60;;;;;;6038725;23;20181;-84
2022/09/27 02:39:07;;;;;;;5.00;4.50;;;19.30;65.60;;;;;;6038702;23;20228;-82
2022/09/27 02:41:35;;;;;;;4.80;4.30;;;19.30;65.50;;;;;;6038651;23;20501;-83
2022/09/27 02:44:05;;;;;;;4.97;4.47;;;19.20;65.50;;;;;;6015385;23;20160;-84
2022/09/27 02:47:00;;;;;;;4.90;4.40;;;19.30;65.70;;;;;;5992029;23;20157;-83
2022/09/27 02:49:42;;;;;;;4.28;3.88;;;19.20;65.60;;;;;;6099878;23;20160;-82
2022/09/27 02:52:43;;;;;;;4.65;4.15;;;19.20;65.60;;;;;;6168001;23;20160;-83
2022/09/27 02:55:20;;;;;;;4.55;4.00;;;19.20;65.60;;;;;;6122427;22;20154;-84
2022/09/27 02:58:23;;;;;;;5.40;4.30;;;19.30;65.80;;;;;;6195203;23;20271;-83
2022/09/27 03:01:01;;;;;;;4.70;4.30;;;19.20;65.70;;;;;;6193002;23;20149;-84
2022/09/27 03:03:34;;;;;;;5.05;4.55;;;19.20;65.70;;;;;;6219794;23;20267;-84
2022/09/27 03:06:07;;;;;;;4.60;4.20;;;19.20;65.70;;;;;;6194331;23;20184;-84
2022/09/27 03:08:38;;;;;;;5.40;4.38;;;19.20;65.80;;;;;;6244502;23;20171;-85
2022/09/27 03:11:07;;;;;;;4.68;4.10;;;19.20;65.80;;;;;;6218399;23;20164;-84
2022/09/27 03:13:35;;;;;;;5.30;3.92;;;19.20;65.70;;;;;;6244904;23;20211;-84
2022/09/27 03:16:02;;;;;;;4.72;4.32;;;19.30;65.80;;;;;;6246042;23;20223;-85
2022/09/27 03:18:35;;;;;;;4.90;4.40;;;19.20;65.70;;;;;;6220786;23;20212;-83
2022/09/27 03:21:05;;;;;;;4.95;4.45;;;19.20;65.80;;;;;;6170825;23;20153;-83
2022/09/27 03:23:31;;;;;;;4.47;4.00;;;19.20;65.80;;;;;;6220835;23;20187;-83
2022/09/27 03:25:57;;;;;;;4.72;4.25;;;19.20;65.80;;;;;;6221189;23;20146;-84
2022/09/27 03:28:28;;;;;;;4.38;3.97;;;19.20;65.90;;;;;;6176309;23;20213;-85
2022/09/27 03:30:54;;;;;;;4.32;3.85;;;19.10;65.90;;;;;;6174468;23;20163;-83
2022/09/27 03:33:22;;;;;;;4.57;4.13;;;19.20;65.90;;;;;;6097445;23;20156;-82
2022/09/27 03:35:54;;;;;;;4.30;3.90;;;19.20;65.80;;;;;;6098362;23;20136;-83
2022/09/27 03:38:24;;;;;;;5.03;4.43;;;19.20;65.90;;;;;;6198782;23;20192;-84
2022/09/27 03:40:52;;;;;;;4.63;4.22;;;19.20;65.90;;;;;;6200125;23;20505;-84
2022/09/27 03:43:18;;;;;;;4.53;4.07;;;19.20;65.80;;;;;;6098040;23;20198;-84
2022/09/27 03:45:47;;;;;;;4.93;4.25;;;19.20;65.80;;;;;;6098390;23;20172;-84
2022/09/27 03:48:16;;;;;;;4.50;4.10;;;19.20;65.90;;;;;;6122484;23;20160;-82
2022/09/27 03:50:45;;;;;;;4.30;3.90;;;19.20;65.90;;;;;;6122387;23;20301;-83
2022/09/27 03:53:12;;;;;;;5.82;4.10;;;19.20;65.80;;;;;;6098820;23;20156;-84
2022/09/27 03:55:38;;;;;;;4.68;4.13;;;19.20;65.90;;;;;;6245916;23;20224;-83
2022/09/27 03:58:12;;;;;;;4.95;4.20;;;19.20;65.90;;;;;;6246018;23;20280;-83
2022/09/27 04:00:42;;;;;;;4.90;4.30;;;19.20;66.00;;;;;;6168989;23;20173;-83
2022/09/27 04:03:12;;;;;;;5.10;4.03;;;19.20;66.00;;;;;;6195057;23;20173;-84
2022/09/27 04:05:38;;;;;;;4.65;4.07;;;19.20;66.00;;;;;;6169262;23;20153;-84
2022/09/27 04:08:10;;;;;;;4.30;3.90;;;19.20;66.00;;;;;;6245696;23;20530;-83
2022/09/27 04:10:38;;;;;;;4.55;4.15;;;19.20;65.90;;;;;;6195223;23;20150;-84
2022/09/27 04:13:08;;;;;;;4.78;4.15;;;19.20;66.10;;;;;;6194918;23;20153;-83
2022/09/27 04:15:38;;;;;;;4.47;4.07;;;19.20;66.10;;;;;;6145566;23;20153;-83
2022/09/27 04:18:08;;;;;;;4.57;4.18;;;19.10;66.00;;;;;;6169263;23;20203;-82
2022/09/27 04:20:38;;;;;;;4.43;3.95;;;19.10;66.00;;;;;;6170354;23;20236;-83
2022/09/27 04:23:09;;;;;;;4.60;4.20;;;19.20;66.10;;;;;;6194628;23;20236;-83
2022/09/27 04:25:41;;;;;;;4.40;4.00;;;19.10;66.10;;;;;;6168841;23;20149;-84
2022/09/27 04:28:11;;;;;;;4.72;4.22;;;19.10;66.10;;;;;;6169158;23;20153;-83
2022/09/27 04:30:41;;;;;;;4.50;4.10;;;19.10;66.40;;;;;;6171677;23;20156;-84
2022/09/27 04:33:09;;;;;;;4.80;4.30;;;19.10;66.00;;;;;;6195590;23;20149;-83
2022/09/27 04:38:30;;;;;;;5.53;4.30;;;19.10;66.00;;;;;;5968347;23;20273;-84
2022/09/27 04:41:00;;;;;;;5.05;4.55;;;19.10;66.00;;;;;;5987805;23;20158;-83
2022/09/27 04:43:28;;;;;;;4.80;4.30;;;19.10;66.10;;;;;;5988111;23;20154;-84
2022/09/27 04:45:57;;;;;;;4.57;4.00;;;19.20;66.10;;;;;;5987750;23;20158;-84
2022/09/27 04:48:31;;;;;;;4.25;3.85;;;19.10;65.80;;;;;;5987621;23;20605;-84
2022/09/27 04:50:58;;;;;;;4.38;3.97;;;19.10;66.00;;;;;;6100839;23;20706;-83
2022/09/27 04:53:29;;;;;;;4.22;3.83;;;19.20;66.00;;;;;;6101739;23;20147;-82
2022/09/27 04:56:06;;;;;;;4.30;3.90;;;19.10;65.80;;;;;;6077078;23;20163;-83
2022/09/27 04:58:33;;;;;;;4.50;4.10;;;19.10;65.90;;;;;;6125435;23;20191;-84
2022/09/27 05:01:01;;;;;;;4.13;3.65;;;19.10;65.90;;;;;;6101525;23;20172;-84
2022/09/27 05:03:31;;;;;;;4.30;3.90;;;19.10;65.40;;;;;;6101821;23;20133;-83
2022/09/27 05:06:02;;;;;;;4.57;3.83;;;19.10;65.40;;;;;;6138206;23;20154;-83
2022/09/27 05:08:29;;;;;;;3.95;3.55;;;19.20;65.60;;;;;;6135588;23;20181;-82
2022/09/27 05:11:00;;;;;;;3.00;2.70;;;19.10;65.10;;;;;;6160065;23;20143;-84
2022/09/27 05:13:30;;;;;;;3.10;2.80;;;19.20;65.20;;;;;;6151004;23;20154;-83
2022/09/27 05:16:02;;;;;;;3.40;3.10;;;19.20;65.10;;;;;;6170097;23;20612;-84
2022/09/27 05:18:36;;;;;;;3.17;2.88;;;19.20;65.10;;;;;;6219991;23;20635;-84
2022/09/27 05:21:07;;;;;;;2.80;2.60;;;19.20;64.80;;;;;;6154481;23;20628;-84
2022/09/27 05:23:36;;;;;;;2.60;2.40;;;19.20;64.90;;;;;;6174536;23;20674;-84
2022/09/27 05:26:07;;;;;;;2.58;2.38;;;19.20;64.70;;;;;;6097731;23;20154;-84
2022/09/27 05:28:34;;;;;;;2.60;2.40;;;19.20;64.60;;;;;;6198666;23;20471;-83
2022/09/27 05:31:01;;;;;;;2.70;2.50;;;19.20;64.70;;;;;;6098101;23;20430;-83
2022/09/27 05:33:26;;;;;;;2.67;2.47;;;19.20;64.70;;;;;;6096778;23;20207;-83
2022/09/27 05:35:56;;;;;;;2.65;2.45;;;19.20;64.70;;;;;;6071839;23;20140;-84
2022/09/27 05:38:22;;;;;;;2.40;2.20;;;19.20;64.50;;;;;;6123974;23;20178;-83
2022/09/27 05:40:59;;;;;;;2.60;2.40;;;19.20;64.50;;;;;;6223467;23;20145;-82
2022/09/27 05:43:32;;;;;;;2.50;2.30;;;19.20;64.70;;;;;;6198136;23;20156;-85
2022/09/27 05:46:01;;;;;;;2.67;2.47;;;19.30;64.50;;;;;;6199236;23;20228;-84
2022/09/27 05:48:31;;;;;;;2.30;2.08;;;19.20;64.60;;;;;;6163247;23;20215;-82
2022/09/27 05:50:59;;;;;;;3.58;2.42;;;19.20;64.40;;;;;;6162818;23;20170;-81
2022/09/27 05:53:31;;;;;;;5.28;2.25;;;19.20;64.70;;;;;;6113805;23;20150;-83
2022/09/27 05:56:03;;;;;;;2.50;2.30;;;19.20;64.70;;;;;;6089665;23;20255;-82
2022/09/27 05:58:34;;;;;;;2.97;2.50;;;19.20;64.70;;;;;;6089842;23;20191;-82
2022/09/27 06:01:05;;;;;;;2.60;2.40;;;19.20;64.70;;;;;;6113613;23;20278;-84
2022/09/27 06:03:30;;;;;;;2.65;2.42;;;19.20;64.70;;;;;;6089125;23;20151;-84
2022/09/27 06:06:04;;;;;;;2.50;2.30;;;19.30;64.80;;;;;;6160309;23;20206;-82
2022/09/27 06:08:33;;;;;;;2.75;2.50;;;19.30;64.70;;;;;;6161694;23;20206;-82
2022/09/27 06:11:04;;;;;;;2.63;2.40;;;19.20;64.70;;;;;;6095906;23;20152;-82
2022/09/27 06:13:40;;;;;;;2.47;2.22;;;19.30;64.80;;;;;;6069413;23;20155;-83
2022/09/27 06:16:08;;;;;;;2.50;2.30;;;19.20;64.60;;;;;;6045977;23;20179;-83
2022/09/27 06:18:34;;;;;;;2.50;2.30;;;19.30;64.80;;;;;;6024571;23;20198;-82
2022/09/27 06:21:02;;;;;;;2.28;2.08;;;19.30;64.90;;;;;;6121908;23;20152;-84
2022/09/27 06:23:32;;;;;;;2.63;2.42;;;19.20;64.90;;;;;;6199992;23;20234;-86
2022/09/27 06:26:04;;;;;;;2.60;2.35;;;19.30;64.90;;;;;;6197083;23;20235;-85
2022/09/27 06:28:34;;;;;;;2.40;2.20;;;19.30;65.00;;;;;;6174047;23;20204;-85
2022/09/27 06:31:07;;;;;;;2.45;2.25;;;19.30;65.00;;;;;;6173421;23;20148;-84
2022/09/27 06:33:36;;;;;;;2.30;2.10;;;19.30;65.00;;;;;;6174048;23;20274;-83
2022/09/27 06:36:03;;;;;;;2.45;2.20;;;19.30;65.00;;;;;;6097882;23;20187;-84
2022/09/27 06:38:33;;;;;;;2.28;2.05;;;19.20;65.00;;;;;;6173880;23;20222;-83
2022/09/27 06:41:03;;;;;;;2.20;2.00;;;19.30;65.00;;;;;;6197752;23;20181;-83
2022/09/27 06:43:30;;;;;;;2.03;1.90;;;19.30;64.90;;;;;;6098858;23;20152;-83
2022/09/27 06:46:04;;;;;;;3.45;2.10;;;19.30;64.90;;;;;;6098244;23;20153;-84
2022/09/27 06:48:31;;;;;;;2.50;2.17;;;19.30;65.00;;;;;;6121449;23;20159;-83
2022/09/27 06:51:01;;;;;;;2.10;1.90;;;19.30;65.00;;;;;;6121674;23;20222;-85
2022/09/27 06:53:30;;;;;;;2.17;1.98;;;19.20;64.90;;;;;;6173246;23;20179;-83
2022/09/27 06:56:07;;;;;;;2.15;1.95;;;19.30;64.90;;;;;;6173699;23;20583;-83
2022/09/27 07:01:20;;;;;;;2.05;1.85;;;19.30;64.60;;;;;;6221004;23;20717;-85
2022/09/27 07:03:50;;;;;;;2.92;2.13;;;19.30;64.70;;;;;;6195880;23;20149;-84
2022/09/27 07:06:22;;;;;;;3.35;2.05;;;19.30;64.90;;;;;;6222495;23;20460;-83
2022/09/27 07:08:50;;;;;;;2.22;1.88;;;19.40;65.00;;;;;;6130489;23;20514;-84
2022/09/27 07:11:20;;;;;;;1.90;1.60;;;19.30;64.80;;;;;;6126759;23;20152;-82
2022/09/27 07:13:52;;;;;;;2.15;1.95;;;19.40;64.80;;;;;;6102256;23;20587;-84
2022/09/27 07:16:20;;;;;;;2.05;1.85;;;19.30;64.90;;;;;;6078882;23;20158;-84
2022/09/27 07:18:52;;;;;;;2.75;1.77;;;19.40;64.70;;;;;;6102820;23;20179;-82
2022/09/27 07:21:23;;;;;;;2.58;2.13;;;19.40;64.90;;;;;;6104588;23;20198;-82
2022/09/27 07:23:50;;;;;;;3.15;1.58;;;19.40;65.00;;;;;;6099389;23;20159;-84
2022/09/27 07:26:16;;;;;;;2.40;2.20;;;19.40;64.90;;;;;;6137262;23;20157;-83
2022/09/27 07:28:43;;;;;;;2.13;1.85;;;19.40;64.90;;;;;;6161881;23;20184;-85
2022/09/27 07:31:16;;;;;;;2.38;2.03;;;19.40;65.00;;;;;;6136754;23;20147;-83
2022/09/27 07:33:41;;;;;;;2.00;1.80;;;19.40;64.90;;;;;;6160389;23;20194;-83
2022/09/27 07:36:10;;;;;;;2.05;1.77;;;19.40;64.90;;;;;;6110700;23;20159;-84
2022/09/27 07:38:38;;;;;;;1.98;1.77;;;19.30;64.70;;;;;;6111643;23;20221;-82
2022/09/27 07:41:06;;;;;;;2.28;2.08;;;19.40;64.70;;;;;;6047960;23;20133;-84
2022/09/27 07:43:32;;;;;;;2.60;1.83;;;19.40;64.80;;;;;;6097152;23;20594;-82
2022/09/27 07:45:58;;;;;;;2.30;1.80;;;19.50;64.80;;;;;;6097865;23;20208;-82
2022/09/27 07:48:27;;;;;;;3.45;1.80;;;19.40;64.70;;;;;;6124266;23;20160;-83
2022/09/27 07:50:59;;;;;;;2.78;1.77;;;19.40;64.80;;;;;;6074817;23;20152;-83
2022/09/27 07:53:29;;;;;;;2.10;1.40;;;19.40;64.80;;;;;;6224036;23;20166;-83
2022/09/27 07:55:56;;;;;;;1.70;1.60;;;19.50;64.50;;;;;;6198615;23;20156;-83
2022/09/27 07:58:22;;;;;;;2.05;1.85;;;19.50;65.40;;;;;;6096999;23;20160;-84
2022/09/27 08:00:55;;;;;;;2.25;2.05;;;19.50;64.70;;;;;;6122607;23;20139;-83
2022/09/27 08:03:22;;;;;;;3.58;2.25;;;19.50;64.70;;;;;;6198397;23;20164;-86
2022/09/27 08:05:49;;;;;;;2.10;1.80;;;19.50;64.80;;;;;;6220570;23;20577;-82
2022/09/27 08:08:21;;;;;;;3.45;1.90;;;19.50;65.00;;;;;;6245532;23;20146;-83
2022/09/27 08:10:52;;;;;;;5.13;1.70;;;19.50;64.90;;;;;;6195688;23;20644;-81
2022/09/27 08:13:20;;;;;;;1.67;1.58;;;19.50;64.90;;;;;;6169941;23;20149;-84
2022/09/27 08:15:51;;;;;;;2.78;1.80;;;19.50;64.80;;;;;;6170093;23;20153;-82
2022/09/27 08:18:23;;;;;;;1.80;1.70;;;19.50;64.70;;;;;;6245606;23;20162;-83
2022/09/27 08:20:56;;;;;;;3.90;2.20;;;19.50;64.40;;;;;;6172373;23;20195;-81
2022/09/27 08:23:23;;;;;;;2.15;1.95;;;19.60;64.60;;;;;;6172072;23;20439;-84
2022/09/27 08:25:57;;;;;;;1.98;1.80;;;19.60;64.70;;;;;;6224521;23;20225;-83
2022/09/27 08:28:26;;;;;;;1.52;1.42;;;19.50;64.70;;;;;;6177221;23;20161;-83
2022/09/27 08:30:58;;;;;;;1.77;1.67;;;19.60;64.80;;;;;;6161658;23;20226;-82
2022/09/27 08:33:48;;;;;;;1.85;1.75;;;19.50;64.80;;;;;;6106726;23;20155;-83
2022/09/27 08:36:20;;;;;;;1.70;1.60;;;19.50;64.90;;;;;;6160066;23;20178;-83
2022/09/27 08:38:49;;;;;;;1.90;1.80;;;19.60;64.90;;;;;;6107528;23;20286;-84
2022/09/27 08:41:24;;;;;;;2.17;1.63;;;19.50;65.00;;;;;;6108116;23;20184;-84
2022/09/27 08:44:21;;;;;;;3.22;1.88;;;19.50;65.10;;;;;;6134487;23;20551;-83
2022/09/27 08:46:57;;;;;;;1.60;1.50;;;19.50;65.20;;;;;;6111963;23;20156;-83
2022/09/27 08:49:33;;;;;;;2.10;1.88;;;19.60;65.20;;;;;;6064977;23;20183;-83
2022/09/27 08:52:00;;;;;;;2.42;1.70;;;19.50;65.20;;;;;;6058785;23;20157;-83
2022/09/27 08:54:32;;;;;;;1.80;1.70;;;19.60;65.30;;;;;;6083055;23;20525;-83
2022/09/27 08:57:05;;;;;;;1.90;1.70;;;19.60;65.20;;;;;;6035514;23;20188;-81
2022/09/27 08:59:40;;;;;;;2.85;1.73;;;19.60;65.30;;;;;;6056750;23;20152;-83
2022/09/27 09:02:18;;;;;;;4.00;2.10;;;19.60;65.30;;;;;;6129487;23;20154;-84
2022/09/27 09:04:57;;;;;;;1.73;1.63;;;19.60;65.40;;;;;;6157586;23;20154;-82
2022/09/27 09:07:47;;;;;;;1.90;1.70;;;19.60;65.40;;;;;;6132301;23;20161;-82
2022/09/27 09:13:51;;;;;;;1.70;1.60;;;19.60;65.40;;;;;;6158125;23;20151;-84
2022/09/27 09:16:43;;;;;;;3.15;1.70;;;19.60;65.40;;;;;;6136049;23;20152;-83
2022/09/27 09:19:28;;;;;;;1.70;1.60;;;19.60;65.40;;;;;;6137434;23;20611;-83
2022/09/27 09:22:31;;;;;;;1.70;1.60;;;19.60;65.40;;;;;;6223137;23;20154;-83
2022/09/27 09:25:08;;;;;;;1.67;1.58;;;19.60;65.40;;;;;;6228140;23;20180;-82
2022/09/27 09:27:46;;;;;;;1.83;1.73;;;19.60;65.20;;;;;;6199095;23;20160;-84
2022/09/27 09:30:22;;;;;;;2.00;1.90;;;19.60;65.20;;;;;;6201288;23;20275;-85
2022/09/27 09:33:21;;;;;;;2.17;1.98;;;19.60;65.20;;;;;;6198371;23;20227;-83
2022/09/27 09:36:03;;;;;;;2.05;1.90;;;19.60;65.00;;;;;;6067056;23;20165;-85
2022/09/27 09:38:41;;;;;;;3.33;2.30;;;19.70;64.80;;;;;;6137639;23;20251;-84
2022/09/27 09:41:22;;;;;;;2.60;2.40;;;19.70;65.10;;;;;;6067910;23;20138;-83
2022/09/27 09:43:54;;;;;;;2.47;2.28;;;19.70;65.10;;;;;;6043379;23;20597;-84
2022/09/27 09:46:34;;;;;;;2.70;2.50;;;19.70;65.00;;;;;;6042716;23;20150;-83
2022/09/27 09:49:07;;;;;;;2.40;2.20;;;19.70;65.00;;;;;;6068055;23;20230;-83
2022/09/27 09:51:46;;;;;;;2.72;2.30;;;19.70;64.90;;;;;;6217296;23;20197;-83
2022/09/27 09:54:30;;;;;;;2.78;2.58;;;19.70;64.80;;;;;;6167431;23;20150;-84
2022/09/27 09:57:03;;;;;;;2.55;2.35;;;19.70;64.90;;;;;;6118203;23;20529;-82
2022/09/27 09:59:53;;;;;;;3.00;2.70;;;19.70;64.70;;;;;;6168866;23;20253;-82
2022/09/27 10:02:30;;;;;;;4.38;2.47;;;19.80;64.80;;;;;;6173099;23;20154;-83
2022/09/27 10:05:06;;;;;;;3.67;2.70;;;19.80;64.50;;;;;;6169679;23;20153;-83
2022/09/27 10:07:33;;;;;;;3.38;2.60;;;19.70;64.90;;;;;;6168684;23;20234;-86
2022/09/27 10:10:15;;;;;;;2.80;2.60;;;19.70;65.00;;;;;;6166348;23;20189;-82
2022/09/27 10:12:46;;;;;;;3.15;2.80;;;19.60;65.00;;;;;;6190192;23;20154;-82
2022/09/27 10:15:19;;;;;;;3.17;2.78;;;19.70;65.20;;;;;;6169205;23;20150;-82
2022/09/27 10:17:52;;;;;;;2.70;2.50;;;19.70;65.20;;;;;;6066109;23;20165;-83
2022/09/27 10:20:29;;;;;;;3.30;3.00;;;19.70;65.20;;;;;;6135931;23;20482;-84
2022/09/27 10:23:05;;;;;;;3.53;3.22;;;19.70;65.20;;;;;;6065295;23;20213;-83
2022/09/27 10:25:54;;;;;;;4.18;2.85;;;19.60;65.40;;;;;;6042062;23;20141;-84
2022/09/27 10:28:37;;;;;;;3.50;3.20;;;19.60;65.60;;;;;;6043319;23;20145;-84
2022/09/27 10:31:24;;;;;;;3.47;3.17;;;19.60;65.60;;;;;;6067487;23;20134;-83
2022/09/27 10:34:14;;;;;;;3.70;3.30;;;19.70;66.60;;;;;;6058729;23;20620;-82
2022/09/27 10:36:40;;;;;;;3.20;2.90;;;19.60;65.80;;;;;;6086671;23;20147;-83
2022/09/27 10:39:22;;;;;;;3.10;2.90;;;19.60;65.90;;;;;;6104819;23;20124;-83
2022/09/27 10:41:48;;;;;;;3.30;3.00;;;19.60;65.90;;;;;;6202791;23;20152;-80
2022/09/27 10:44:27;;;;;;;3.58;3.28;;;19.60;65.90;;;;;;6082088;23;20232;-80
2022/09/27 10:46:58;;;;;;;3.72;3.42;;;19.60;65.90;;;;;;6194675;23;20244;-81
2022/09/27 10:49:24;;;;;;;3.70;3.30;;;19.70;66.00;;;;;;6204136;23;20623;-83
2022/09/27 10:55:28;;;;;;;3.50;3.20;;;19.60;65.90;;;;;;6190726;23;20159;-82
2022/09/27 10:57:59;;;;;;;3.70;3.40;;;19.70;66.10;;;;;;6088103;23;20198;-82
2022/09/27 11:00:37;;;;;;;3.65;3.35;;;19.70;66.20;;;;;;6137228;23;20152;-85
2022/09/27 12:00:41;;;;;;;6.30;5.70;;;19.80;67.90;;;;;;6101923;23;20227;-87
2022/09/27 12:52:14;;;;;;;8.68;7.88;;;19.80;68.30;;;;;;6133824;23;20285;-83
2022/09/27 13:18:10;;;;;;;12.38;9.05;;;19.70;71.20;;;;;;6106648;23;20212;-84
2022/09/27 18:19:47;;;;;;;9.30;8.40;;;19.90;68.00;;;;;;6113851;23;20220;-85
2022/09/27 18:22:25;;;;;;;8.77;7.88;;;19.90;68.00;;;;;;6089994;23;20171;-85
2022/09/27 18:24:53;;;;;;;9.02;7.70;;;19.90;67.70;;;;;;6186467;23;20152;-85
2022/09/27 18:27:33;;;;;;;9.70;8.32;;;19.90;67.70;;;;;;6112199;23;20203;-84
2022/09/27 18:30:11;;;;;;;8.70;7.90;;;19.90;67.70;;;;;;6202254;23;20179;-85
2022/09/27 18:36:09;;;;;;;10.57;7.93;;;19.90;68.00;;;;;;6073803;23;20209;-84
2022/09/27 18:39:08;;;;;;;8.52;7.63;;;19.90;68.20;;;;;;6089626;23;20201;-84
2022/09/27 18:42:01;;;;;;;10.23;7.80;;;19.90;67.90;;;;;;6088837;23;20159;-84
2022/09/27 18:44:51;;;;;;;8.10;7.30;;;19.90;68.10;;;;;;5969014;23;20160;-85
2022/09/27 18:47:51;;;;;;;9.13;8.00;;;19.90;68.00;;;;;;6086647;23;20172;-84
2022/09/27 18:50:29;;;;;;;8.30;7.43;;;19.90;67.70;;;;;;6007947;23;20213;-84
2022/09/27 18:53:13;;;;;;;8.90;8.00;;;19.90;67.80;;;;;;5972673;24;20152;-84
2022/09/27 18:56:06;;;;;;;9.45;7.43;;;19.90;67.70;;;;;;5951075;24;20159;-84
2022/09/27 18:58:51;;;;;;;8.55;7.63;;;19.90;67.70;;;;;;5996356;24;20199;-85
2022/09/27 19:01:45;;;;;;;8.27;7.47;;;19.90;67.70;;;;;;5931746;24;20160;-84
2022/09/27 19:04:23;;;;;;;8.65;7.85;;;19.90;67.70;;;;;;5944813;24;20152;-85
2022/09/27 19:08:05;;;;;;;8.27;7.47;;;19.80;67.50;;;;;;5950026;24;20140;-84
2022/09/27 19:10:43;;;;;;;8.50;7.55;;;19.80;67.50;;;;;;5949480;24;20170;-84
2022/09/27 19:13:20;;;;;;;8.15;7.22;;;19.90;67.60;;;;;;5977796;24;20151;-84
2022/09/27 19:16:00;;;;;;;8.50;7.60;;;19.80;67.50;;;;;;5999665;23;20151;-84
2022/09/27 19:18:29;;;;;;;8.00;7.20;;;19.80;67.40;;;;;;5898128;23;20201;-84
2022/09/27 19:21:10;;;;;;;8.18;7.38;;;19.80;67.40;;;;;;5881066;24;20165;-84
2022/09/27 19:23:41;;;;;;;8.45;7.47;;;19.80;67.30;;;;;;5913087;24;20146;-85
2022/09/27 19:26:21;;;;;;;8.15;7.35;;;19.80;67.40;;;;;;5867625;24;20154;-82
2022/09/27 19:28:52;;;;;;;9.43;8.00;;;19.80;67.40;;;;;;5860292;24;20232;-83
2022/09/27 19:31:25;;;;;;;7.70;6.88;;;19.80;67.40;;;;;;5866126;24;20173;-83
2022/09/27 19:34:00;;;;;;;8.23;6.85;;;19.80;67.20;;;;;;5857828;24;20162;-83
2022/09/27 19:36:55;;;;;;;8.02;7.22;;;19.80;67.20;;;;;;5878292;24;20185;-83
2022/09/27 19:39:24;;;;;;;8.25;7.40;;;19.80;67.30;;;;;;5889111;23;20180;-84
2022/09/27 19:42:02;;;;;;;8.25;7.45;;;19.70;67.10;;;;;;5931854;23;20160;-84
2022/09/27 19:44:44;;;;;;;8.35;7.35;;;19.80;67.40;;;;;;5932969;24;20157;-84
2022/09/27 19:47:36;;;;;;;8.20;7.22;;;19.80;67.80;;;;;;6054550;23;20164;-84
2022/09/27 19:53:34;;;;;;;7.82;7.03;;;19.80;67.20;;;;;;6045414;23;20205;-83
2022/09/27 20:03:11;;;;;;;7.50;6.80;;;19.80;67.20;;;;;;6047409;23;20281;-83
2022/09/27 20:06:09;;;;;;;8.52;7.20;;;19.70;67.20;;;;;;6096686;23;20211;-83
2022/09/27 20:08:54;;;;;;;7.43;6.72;;;19.70;67.20;;;;;;6085451;23;20184;-83
2022/09/27 20:12:03;;;;;;;9.60;7.28;;;19.70;67.20;;;;;;6061101;23;20163;-83
2022/09/27 20:15:09;;;;;;;7.80;7.00;;;19.70;67.20;;;;;;6086442;23;20144;-84
2022/09/27 20:17:39;;;;;;;7.80;7.05;;;19.70;67.30;;;;;;6082154;23;20259;-83
2022/09/27 20:20:30;;;;;;;8.23;7.43;;;19.70;67.40;;;;;;6028363;23;20172;-83
2022/09/27 20:23:13;;;;;;;8.02;7.22;;;19.70;67.20;;;;;;6022742;23;20162;-83
2022/09/27 20:25:54;;;;;;;8.02;7.15;;;19.70;67.20;;;;;;5960650;23;20169;-84
2022/09/27 20:28:42;;;;;;;7.85;7.05;;;19.70;67.20;;;;;;5965837;24;20167;-83
2022/09/27 20:31:40;;;;;;;7.60;6.57;;;19.70;67.20;;;;;;5946678;24;20625;-84
2022/09/27 20:34:23;;;;;;;7.97;7.18;;;19.70;67.20;;;;;;5944950;24;20159;-83
2022/09/27 20:37:11;;;;;;;7.30;6.60;;;19.70;67.20;;;;;;5968126;24;20281;-83
2022/09/27 20:39:40;;;;;;;8.23;7.00;;;19.70;67.20;;;;;;5936772;23;20215;-84
2022/09/27 20:42:22;;;;;;;8.02;7.22;;;19.70;67.30;;;;;;5996210;23;20158;-83
2022/09/27 20:45:02;;;;;;;8.30;7.40;;;19.60;67.20;;;;;;5997165;23;20159;-83
2022/09/27 20:48:00;;;;;;;8.57;7.65;;;19.60;67.40;;;;;;5973404;23;20155;-82
2022/09/27 20:54:17;;;;;;;10.88;9.00;;;19.70;68.70;;;;;;5895694;24;20156;-83
2022/09/27 20:56:48;;;;;;;9.88;8.88;;;19.60;68.70;;;;;;5931518;23;20248;-83
2022/09/27 20:59:31;;;;;;;10.73;9.07;;;19.60;68.70;;;;;;5945812;24;20157;-83
2022/09/27 21:02:08;;;;;;;10.90;9.70;;;19.60;69.00;;;;;;6077427;23;20164;-83
2022/09/27 21:04:49;;;;;;;11.90;9.25;;;19.60;69.00;;;;;;6081656;23;20152;-83